createdAt,value
2024-02-01T00:02:04.011Z,1.51
2024-02-01T00:07:06.666Z,1.55
2024-02-01T00:12:09.556Z,1.32
2024-02-01T00:17:12.199Z,1.34
2024-02-01T00:22:23.210Z,1.28
2024-02-01T00:27:30.772Z,1.36
2024-02-01T00:32:33.534Z,1.32
2024-02-01T00:37:36.209Z,1.45
2024-02-01T00:42:38.962Z,1.46
2024-02-01T00:47:41.749Z,1.40
2024-02-01T00:52:44.724Z,1.25
2024-02-01T00:57:47.666Z,1.32
2024-02-01T01:02:50.291Z,1.38
2024-02-01T01:07:53.260Z,1.48
2024-02-01T01:12:56.140Z,1.58
2024-02-01T01:17:58.977Z,1.67
2024-02-01T01:23:01.840Z,1.72
2024-02-01T01:28:04.809Z,1.73
2024-02-01T01:33:07.564Z,1.65
2024-02-01T01:38:10.276Z,1.64
2024-02-01T01:43:12.890Z,1.77
2024-02-01T01:48:15.758Z,1.73
2024-02-01T01:53:18.674Z,1.62
2024-02-01T01:58:21.798Z,1.65
2024-02-01T02:03:30.109Z,1.60
2024-02-01T02:08:34.152Z,1.81
2024-02-01T02:13:36.990Z,1.73
2024-02-01T02:18:39.882Z,1.69
2024-02-01T02:23:42.926Z,1.67
2024-02-01T02:28:45.604Z,1.72
2024-02-01T02:33:48.177Z,1.73
2024-02-01T02:38:50.838Z,1.85
2024-02-01T02:43:54.079Z,1.92
2024-02-01T02:48:58.364Z,1.95
2024-02-01T02:54:01.034Z,2.02
2024-02-01T02:59:03.749Z,1.76
2024-02-01T03:04:09.814Z,1.92
2024-02-01T03:09:18.558Z,1.77
2024-02-01T03:14:21.360Z,1.88
2024-02-01T03:19:24.191Z,1.89
2024-02-01T03:24:26.883Z,2.02
2024-02-01T03:29:29.778Z,1.79
2024-02-01T03:34:35.149Z,1.96
2024-02-01T03:39:38.111Z,1.93
2024-02-01T03:44:41.686Z,1.95
2024-02-01T03:49:44.652Z,2.13
2024-02-01T03:54:48.236Z,2.11
2024-02-01T03:59:51.495Z,2.06
2024-02-01T04:04:54.203Z,1.91
2024-02-01T04:09:57.019Z,1.86
2024-02-01T04:15:03.956Z,1.78
2024-02-01T04:20:10.209Z,1.74
2024-02-01T04:25:13.755Z,1.89
2024-02-01T04:30:17.692Z,1.89
2024-02-01T04:35:20.404Z,1.84
2024-02-01T04:40:23.476Z,1.68
2024-02-01T04:45:26.362Z,1.61
2024-02-01T04:50:29.425Z,1.65
2024-02-01T04:55:35.246Z,1.72
2024-02-01T05:00:38.295Z,1.76
2024-02-01T05:05:40.993Z,1.78
2024-02-01T05:10:46.485Z,1.65
2024-02-01T05:15:49.304Z,1.71
2024-02-01T05:20:52.132Z,1.78
2024-02-01T05:25:54.812Z,2.01
2024-02-01T05:30:59.056Z,1.87
2024-02-01T05:36:08.119Z,1.98
2024-02-01T05:41:13.817Z,2.07
2024-02-01T05:46:16.802Z,2.16
2024-02-01T05:51:19.453Z,2.15
2024-02-01T05:56:22.082Z,2.26
2024-02-01T06:01:24.857Z,2.20
2024-02-01T06:06:27.832Z,2.35
2024-02-01T06:11:30.729Z,2.30
2024-02-01T06:16:33.720Z,2.41
2024-02-01T06:21:37.567Z,2.76
2024-02-01T06:26:40.452Z,2.92
2024-02-01T06:31:43.565Z,2.96
2024-02-01T06:36:54.669Z,2.86
2024-02-01T06:42:15.582Z,3.06
2024-02-01T06:47:37.765Z,3.34
2024-02-01T06:52:44.656Z,3.33
2024-02-01T06:57:54.771Z,3.70
2024-02-01T07:03:04.238Z,4.40
2024-02-01T07:08:14.686Z,4.57
2024-02-01T07:13:23.788Z,4.51
2024-02-01T07:18:32.423Z,5.12
2024-02-01T07:23:36.053Z,5.62
2024-02-01T07:29:17.009Z,5.36
2024-02-01T07:34:38.081Z,5.38
2024-02-01T07:39:59.362Z,6.22
2024-02-01T07:45:20.354Z,6.94
2024-02-01T07:50:42.078Z,7.23
2024-02-01T07:56:03.279Z,7.41
2024-02-01T08:01:15.978Z,7.06
2024-02-01T08:06:37.225Z,6.80
2024-02-01T08:11:43.405Z,6.90
2024-02-01T08:16:47.852Z,7.68
2024-02-01T08:21:51.416Z,7.39
2024-02-01T08:26:54.228Z,7.24
2024-02-01T08:31:56.872Z,7.96
2024-02-01T08:37:00.037Z,7.96
2024-02-01T08:42:05.028Z,8.86
2024-02-01T08:47:07.887Z,9.63
2024-02-01T08:52:15.748Z,10.18
2024-02-01T08:57:19.366Z,10.58
2024-02-01T09:02:23.136Z,9.89
2024-02-01T09:07:29.333Z,9.55
2024-02-01T09:12:32.024Z,9.80
2024-02-01T09:17:34.847Z,10.03
2024-02-01T09:22:37.543Z,10.07
2024-02-01T09:27:40.831Z,10.15
2024-02-01T09:32:43.413Z,9.94
2024-02-01T09:37:46.386Z,10.48
2024-02-01T09:42:50.938Z,10.49
2024-02-01T09:47:53.770Z,10.33
2024-02-01T09:52:59.001Z,10.02
2024-02-01T09:58:02.285Z,9.76
2024-02-01T10:03:06.131Z,9.39
2024-02-01T10:08:13.305Z,8.73
2024-02-01T10:13:17.796Z,8.43
2024-02-01T10:18:22.248Z,9.46
2024-02-01T10:23:25.918Z,8.35
2024-02-01T10:28:36.331Z,8.05
2024-02-01T10:33:40.637Z,7.84
2024-02-01T10:38:46.208Z,7.47
2024-02-01T10:43:49.983Z,7.80
2024-02-01T10:49:21.023Z,7.35
2024-02-01T10:54:25.356Z,6.79
2024-02-01T10:59:29.158Z,6.79
2024-02-01T11:04:40.160Z,6.56
2024-02-01T11:09:45.102Z,6.13
2024-02-01T11:14:50.198Z,5.85
2024-02-01T11:19:54.830Z,5.93
2024-02-01T11:25:08.040Z,5.36
2024-02-01T11:30:23.248Z,5.37
2024-02-01T11:35:28.284Z,5.24
2024-02-01T11:40:31.281Z,5.38
2024-02-01T11:45:34.246Z,5.37
2024-02-01T11:50:37.003Z,5.53
2024-02-01T11:55:40.880Z,5.44
2024-02-01T12:00:56.666Z,5.38
2024-02-01T12:06:06.611Z,5.34
2024-02-01T12:11:09.667Z,5.36
2024-02-01T12:16:16.191Z,5.04
2024-02-01T12:21:28.091Z,5.10
2024-02-01T12:26:31.877Z,4.97
2024-02-01T12:31:37.470Z,5.04
2024-02-01T12:36:41.815Z,4.91
2024-02-01T12:41:47.126Z,4.73
2024-02-01T12:46:50.215Z,4.63
2024-02-01T12:51:55.411Z,4.60
2024-02-01T12:56:58.505Z,4.53
2024-02-01T13:02:03.576Z,4.49
2024-02-01T13:07:13.315Z,4.34
2024-02-01T13:12:22.420Z,4.24
2024-02-01T13:17:29.929Z,4.08
2024-02-01T13:22:37.321Z,3.95
2024-02-01T13:27:40.173Z,3.93
2024-02-01T13:32:45.469Z,3.86
2024-02-01T13:37:49.534Z,3.85
2024-02-01T13:42:55.489Z,3.86
2024-02-01T13:47:58.641Z,3.81
2024-02-01T13:53:02.345Z,3.76
2024-02-01T13:58:05.732Z,3.88
2024-02-01T14:03:09.397Z,3.95
2024-02-01T14:08:13.879Z,3.81
2024-02-01T14:13:16.959Z,3.79
2024-02-01T14:18:19.807Z,3.66
2024-02-01T14:23:24.523Z,3.74
2024-02-01T14:28:27.820Z,3.52
2024-02-01T14:33:30.799Z,3.58
2024-02-01T14:38:34.050Z,3.50
2024-02-01T14:44:08.405Z,3.31
2024-02-01T14:55:01.898Z,3.43
2024-02-01T15:00:10.068Z,3.59
2024-02-01T15:05:15.266Z,3.49
2024-02-01T15:10:18.574Z,3.14
2024-02-01T15:15:22.999Z,3.09
2024-02-01T15:20:35.542Z,3.17
2024-02-01T15:25:44.548Z,3.22
2024-02-01T15:30:50.466Z,3.15
2024-02-01T15:35:53.899Z,3.14
2024-02-01T15:40:57.656Z,3.21
2024-02-01T15:46:00.247Z,3.16
2024-02-01T15:51:04.743Z,3.20
2024-02-01T15:56:08.299Z,3.25
2024-02-01T16:01:13.224Z,3.21
2024-02-01T16:06:20.293Z,3.14
2024-02-01T16:11:24.601Z,3.14
2024-02-01T16:16:31.983Z,3.13
2024-02-01T16:21:36.407Z,3.18
2024-02-01T16:26:41.050Z,3.22
2024-02-01T16:31:43.736Z,3.24
2024-02-01T16:36:54.795Z,3.32
2024-02-01T16:41:59.477Z,3.30
2024-02-01T16:47:02.249Z,3.34
2024-02-01T16:52:13.086Z,3.30
2024-02-01T16:57:20.970Z,3.30
2024-02-01T17:02:55.949Z,3.40
2024-02-01T17:08:02.578Z,3.34
2024-02-01T17:13:07.150Z,3.26
2024-02-01T17:18:16.141Z,3.39
2024-02-01T17:23:19.673Z,3.44
2024-02-01T17:28:42.733Z,3.39
2024-02-01T17:34:07.249Z,3.33
2024-02-01T17:39:10.767Z,3.35
2024-02-01T17:44:37.453Z,3.42
2024-02-01T17:49:45.743Z,3.40
2024-02-01T17:54:49.318Z,3.32
2024-02-01T17:59:51.916Z,3.61
2024-02-01T18:04:56.014Z,3.73
2024-02-01T18:09:59.626Z,3.87
2024-02-01T18:15:12.373Z,3.87
2024-02-01T18:20:22.751Z,3.96
2024-02-01T18:25:34.262Z,4.02
2024-02-01T18:30:44.771Z,3.81
2024-02-01T18:35:56.318Z,3.86
2024-02-01T18:40:59.173Z,3.86
2024-02-01T18:46:05.210Z,3.83
2024-02-01T18:51:09.465Z,3.90
2024-02-01T18:56:26.281Z,3.85
2024-02-01T19:01:33.250Z,3.93
2024-02-01T19:06:44.460Z,4.04
2024-02-01T19:11:48.918Z,4.13
2024-02-01T19:16:53.141Z,4.04
2024-02-01T19:21:57.065Z,4.20
2024-02-01T19:27:00.636Z,4.30
2024-02-01T19:32:28.391Z,4.27
2024-02-01T19:38:18.161Z,4.17
2024-02-01T19:43:20.962Z,4.09
2024-02-01T19:48:24.272Z,4.06
2024-02-01T19:53:27.244Z,3.90
2024-02-01T19:58:30.208Z,3.76
2024-02-01T20:03:33.075Z,3.60
2024-02-01T20:08:36.192Z,3.73
2024-02-01T20:13:40.065Z,3.74
2024-02-01T20:18:43.153Z,3.81
2024-02-01T20:23:46.101Z,3.87
2024-02-01T20:28:58.661Z,3.91
2024-02-01T20:34:14.628Z,3.97
2024-02-01T20:39:38.361Z,4.05
2024-02-01T20:44:41.196Z,3.99
2024-02-01T20:49:44.422Z,4.05
2024-02-01T20:55:11.804Z,3.96
2024-02-01T21:00:21.827Z,4.11
2024-02-01T21:05:41.481Z,4.04
2024-02-01T21:10:53.728Z,4.11
2024-02-01T21:15:56.567Z,4.15
2024-02-01T21:21:04.799Z,4.09
2024-02-01T21:26:19.852Z,4.22
2024-02-01T21:31:25.395Z,4.51
2024-02-01T21:36:27.962Z,4.45
2024-02-01T21:41:33.451Z,4.27
2024-02-01T21:46:36.792Z,4.15
2024-02-01T21:51:39.522Z,4.03
2024-02-01T21:56:43.253Z,4.02
2024-02-01T22:01:45.942Z,4.12
2024-02-01T22:06:48.600Z,4.21
2024-02-01T22:11:51.276Z,4.18
2024-02-01T22:16:54.088Z,4.27
2024-02-01T22:21:56.935Z,4.38
2024-02-01T22:27:01.992Z,4.44
2024-02-01T22:32:05.014Z,4.47
2024-02-01T22:37:07.734Z,4.55
2024-02-01T22:42:10.604Z,4.59
2024-02-01T22:47:14.939Z,4.71
2024-02-01T22:52:17.550Z,4.74
2024-02-01T22:57:20.177Z,4.86
2024-02-01T23:02:22.784Z,4.90
2024-02-01T23:07:26.801Z,4.83
2024-02-01T23:12:29.690Z,4.90
2024-02-01T23:17:32.402Z,4.87
2024-02-01T23:22:35.554Z,4.90
2024-02-01T23:27:38.817Z,4.90
2024-02-01T23:32:41.617Z,4.88
2024-02-01T23:37:44.400Z,4.87
2024-02-01T23:42:47.124Z,4.73
2024-02-01T23:47:50.063Z,4.62
2024-02-01T23:52:52.977Z,4.49
2024-02-01T23:57:55.684Z,4.60
